createdAt,value
2022-11-12T00:00:14.073Z,89.47
2022-11-12T00:03:21.532Z,89.83
2022-11-12T00:06:28.887Z,88.71
2022-11-12T00:09:35.568Z,89.72
2022-11-12T00:12:43.931Z,90.03
2022-11-12T00:15:50.282Z,89.04
2022-11-12T00:18:57.125Z,90.04
2022-11-12T00:22:03.942Z,90.30
2022-11-12T00:25:11.412Z,90.18
2022-11-12T00:28:19.521Z,89.45
2022-11-12T00:31:27.270Z,89.85
2022-11-12T00:34:34.011Z,91.06
2022-11-12T00:37:40.920Z,91.85
2022-11-12T00:40:47.771Z,92.34
2022-11-12T00:43:55.739Z,89.16
2022-11-12T00:47:02.261Z,89.41
2022-11-12T00:50:10.257Z,90.00
2022-11-12T00:53:18.090Z,89.47
2022-11-12T00:56:24.682Z,89.37
2022-11-12T00:59:32.868Z,92.66
2022-11-12T01:02:44.176Z,92.72
2022-11-12T01:05:52.529Z,91.21
2022-11-12T01:08:59.196Z,91.58
2022-11-12T01:12:06.133Z,91.97
2022-11-12T01:15:14.261Z,92.52
2022-11-12T01:18:20.763Z,90.71
2022-11-12T01:21:32.768Z,90.83
2022-11-12T01:24:39.193Z,90.57
2022-11-12T01:27:46.314Z,90.56
2022-11-12T01:30:55.330Z,90.24
2022-11-12T01:34:04.383Z,89.36
2022-11-12T01:37:10.742Z,89.95
2022-11-12T01:40:17.704Z,89.69
2022-11-12T01:43:24.142Z,88.47
2022-11-12T01:46:32.360Z,88.57
2022-11-12T01:49:51.880Z,87.97
2022-11-12T01:53:04.307Z,88.34
2022-11-12T01:56:11.118Z,88.18
2022-11-12T01:59:22.872Z,88.19
2022-11-12T02:02:31.611Z,88.37
2022-11-12T02:05:40.004Z,89.25
2022-11-12T02:08:47.425Z,88.53
2022-11-12T02:11:54.162Z,88.33
2022-11-12T02:14:59.874Z,87.85
2022-11-12T02:18:08.799Z,88.00
2022-11-12T02:21:15.969Z,89.32
2022-11-12T02:24:37.029Z,89.03
2022-11-12T02:27:44.447Z,88.58
2022-11-12T02:30:51.240Z,88.82
2022-11-12T02:33:58.103Z,88.44
2022-11-12T02:37:04.491Z,89.10
2022-11-12T02:40:12.760Z,88.84
2022-11-12T02:43:19.193Z,88.70
2022-11-12T02:46:25.940Z,88.92
2022-11-12T02:49:32.551Z,89.54
2022-11-12T02:52:40.037Z,89.86
2022-11-12T02:55:47.760Z,88.49
2022-11-12T02:58:54.171Z,89.69
2022-11-12T03:02:00.675Z,90.65
2022-11-12T03:05:07.801Z,89.01
2022-11-12T03:08:14.248Z,89.80
2022-11-12T03:11:22.543Z,89.78
2022-11-12T03:14:29.261Z,89.80
2022-11-12T03:17:36.381Z,89.21
2022-11-12T03:20:42.981Z,88.78
2022-11-12T03:23:49.721Z,89.09
2022-11-12T03:26:57.761Z,89.72
2022-11-12T03:30:04.076Z,89.31
2022-11-12T03:33:12.251Z,89.54
2022-11-12T03:36:19.091Z,89.46
2022-11-12T03:39:25.789Z,89.97
2022-11-12T03:42:34.208Z,89.40
2022-11-12T03:45:40.613Z,89.28
2022-11-12T03:48:47.448Z,89.78
2022-11-12T03:51:54.277Z,89.63
2022-11-12T03:55:01.358Z,89.58
2022-11-12T03:58:09.452Z,89.85
2022-11-12T04:01:16.158Z,89.60
2022-11-12T04:04:23.002Z,89.82
2022-11-12T04:07:47.181Z,90.18
2022-11-12T04:10:54.126Z,90.46
2022-11-12T04:14:02.334Z,90.16
2022-11-12T04:17:26.849Z,89.26
2022-11-12T04:21:02.532Z,89.14
2022-11-12T04:24:09.001Z,89.57
2022-11-12T04:27:15.931Z,90.33
2022-11-12T04:30:24.132Z,89.68
2022-11-12T04:33:31.125Z,90.01
2022-11-12T04:36:37.852Z,89.94
2022-11-12T04:39:44.879Z,90.55
2022-11-12T04:43:09.282Z,91.88
2022-11-12T04:46:17.627Z,89.30
2022-11-12T04:49:24.113Z,91.23
2022-11-12T04:52:31.935Z,92.10
2022-11-12T04:55:38.238Z,91.62
2022-11-12T04:58:44.891Z,91.35
2022-11-12T05:01:53.409Z,90.49
2022-11-12T05:04:59.929Z,90.70
2022-11-12T05:08:06.633Z,90.02
2022-11-12T05:11:13.154Z,89.94
2022-11-12T05:14:19.741Z,89.94
2022-11-12T05:17:27.792Z,90.13
2022-11-12T05:20:34.347Z,90.20
2022-11-12T05:23:41.090Z,89.62
2022-11-12T05:26:48.188Z,89.84
2022-11-12T05:29:55.741Z,89.93
2022-11-12T05:33:05.365Z,89.79
2022-11-12T05:36:11.771Z,90.19
2022-11-12T05:39:18.394Z,89.98
2022-11-12T05:42:24.628Z,91.12
2022-11-12T05:45:31.376Z,90.25
2022-11-12T05:48:39.668Z,89.63
2022-11-12T05:51:46.681Z,89.73
2022-11-12T05:54:53.107Z,90.50
2022-11-12T05:57:59.902Z,89.74
2022-11-12T06:01:07.065Z,90.37
2022-11-12T06:04:16.801Z,89.87
2022-11-12T06:07:23.652Z,91.12
2022-11-12T06:10:30.424Z,90.30
2022-11-12T06:13:37.228Z,91.21
2022-11-12T06:16:44.185Z,92.04
2022-11-12T06:19:52.663Z,91.13
2022-11-12T06:22:59.197Z,91.81
2022-11-12T06:26:06.494Z,93.09
2022-11-12T06:29:13.719Z,92.72
2022-11-12T06:32:20.481Z,93.37
2022-11-12T06:35:28.241Z,91.52
2022-11-12T06:38:36.451Z,90.94
2022-11-12T06:41:43.189Z,89.41
2022-11-12T06:44:49.721Z,89.91
2022-11-12T06:47:59.231Z,89.61
2022-11-12T06:51:12.836Z,89.71
2022-11-12T06:54:19.165Z,89.23
2022-11-12T06:57:25.971Z,90.08
2022-11-12T07:00:32.694Z,89.01
2022-11-12T07:03:40.003Z,88.51
2022-11-12T07:06:48.063Z,88.90
2022-11-12T07:09:54.367Z,89.73
2022-11-12T07:13:01.290Z,89.48
2022-11-12T07:16:09.500Z,90.50
2022-11-12T07:19:16.042Z,90.62
2022-11-12T07:22:24.530Z,90.13
2022-11-12T07:25:31.073Z,90.26
2022-11-12T07:28:37.749Z,90.06
2022-11-12T07:31:44.369Z,90.22
2022-11-12T07:34:51.516Z,89.88
2022-11-12T07:37:59.746Z,90.56
2022-11-12T07:41:08.681Z,90.29
2022-11-12T07:44:15.390Z,89.40
2022-11-12T07:47:22.312Z,89.70
2022-11-12T07:50:29.020Z,89.94
2022-11-12T07:53:37.058Z,90.05
2022-11-12T07:56:43.775Z,89.97
2022-11-12T07:59:50.312Z,90.36
2022-11-12T08:03:00.446Z,89.89
2022-11-12T08:06:07.228Z,89.43
2022-11-12T08:09:15.516Z,89.53
2022-11-12T08:12:22.049Z,89.81
2022-11-12T08:15:28.831Z,89.59
2022-11-12T08:18:35.604Z,90.00
2022-11-12T08:21:42.643Z,89.27
2022-11-12T08:24:50.879Z,88.32
2022-11-12T08:27:59.281Z,88.87
2022-11-12T08:31:07.050Z,88.41
2022-11-12T08:34:16.222Z,87.75
2022-11-12T08:37:26.296Z,87.43
2022-11-12T08:40:34.883Z,87.24
2022-11-12T08:43:43.199Z,84.86
2022-11-12T08:46:49.611Z,84.86
2022-11-12T08:49:56.324Z,83.34
2022-11-12T08:53:03.902Z,83.83
2022-11-12T08:56:11.932Z,82.51
2022-11-12T08:59:18.462Z,82.76
2022-11-12T09:02:25.111Z,83.28
2022-11-12T09:05:31.812Z,83.65
2022-11-12T09:08:40.049Z,85.08
2022-11-12T09:11:48.064Z,84.60
2022-11-12T09:14:59.562Z,84.73
2022-11-12T09:18:19.226Z,84.53
2022-11-12T09:21:25.891Z,84.28
2022-11-12T09:24:32.493Z,83.71
2022-11-12T09:27:44.362Z,83.45
2022-11-12T09:30:55.679Z,85.23
2022-11-12T09:34:02.082Z,84.65
2022-11-12T09:37:08.963Z,83.39
2022-11-12T09:40:19.561Z,84.34
2022-11-12T09:43:31.082Z,83.86
2022-11-12T09:46:44.723Z,85.53
2022-11-12T09:49:58.362Z,83.85
2022-11-12T09:53:12.673Z,82.79
2022-11-12T09:56:21.960Z,82.11
2022-11-12T09:59:33.180Z,81.50
2022-11-12T10:02:48.228Z,82.08
2022-11-12T10:06:00.162Z,81.66
2022-11-12T10:09:12.535Z,80.83
2022-11-12T10:12:35.239Z,79.55
2022-11-12T10:16:16.870Z,79.69
2022-11-12T10:19:34.100Z,81.00
2022-11-12T10:22:59.012Z,79.80
2022-11-12T10:26:13.850Z,80.70
2022-11-12T10:29:28.467Z,81.06
2022-11-12T10:32:38.494Z,80.21
2022-11-12T10:35:45.213Z,80.35
2022-11-12T10:38:55.259Z,81.50
2022-11-12T10:42:05.664Z,80.57
2022-11-12T10:45:22.252Z,80.66
2022-11-12T10:48:34.231Z,79.97
2022-11-12T10:51:41.796Z,80.02
2022-11-12T10:54:54.864Z,79.73
2022-11-12T10:58:16.700Z,81.46
2022-11-12T11:01:23.431Z,81.40
2022-11-12T11:04:35.089Z,79.38
2022-11-12T11:07:51.282Z,79.07
2022-11-12T11:11:16.641Z,79.87
2022-11-12T11:14:33.095Z,80.00
2022-11-12T11:17:39.869Z,78.34
2022-11-12T11:20:55.423Z,78.26
2022-11-12T11:24:11.723Z,78.12
2022-11-12T11:27:30.729Z,77.69
2022-11-12T11:30:40.389Z,78.84
2022-11-12T11:33:55.572Z,77.35
2022-11-12T11:37:15.413Z,75.23
2022-11-12T11:40:28.391Z,76.26
2022-11-12T11:43:48.692Z,75.23
2022-11-12T11:47:07.043Z,74.22
2022-11-12T11:50:27.315Z,74.80
2022-11-12T11:53:47.641Z,75.08
2022-11-12T11:56:59.794Z,73.73
2022-11-12T12:00:16.855Z,73.91
2022-11-12T12:03:32.825Z,74.29
2022-11-12T12:06:49.957Z,75.54
2022-11-12T12:10:09.339Z,73.83
2022-11-12T12:13:25.930Z,73.34
2022-11-12T12:16:52.058Z,73.55
2022-11-12T12:20:06.709Z,72.84
2022-11-12T12:23:22.006Z,71.08
2022-11-12T12:26:37.281Z,70.73
2022-11-12T12:29:50.117Z,72.27
2022-11-12T12:33:02.717Z,71.40
2022-11-12T12:36:12.771Z,71.00
2022-11-12T12:39:21.759Z,71.60
2022-11-12T12:42:34.262Z,71.75
2022-11-12T12:45:44.162Z,71.04
2022-11-12T12:48:54.320Z,68.97
2022-11-12T12:52:01.393Z,71.01
2022-11-12T12:55:28.462Z,69.46
2022-11-12T12:58:45.219Z,70.32
2022-11-12T13:01:58.531Z,70.00
2022-11-12T13:05:06.106Z,71.45
2022-11-12T13:08:15.410Z,70.96
2022-11-12T13:12:06.807Z,71.78
2022-11-12T13:15:17.788Z,73.11
2022-11-12T13:19:00.922Z,72.55
2022-11-12T13:22:35.248Z,71.28
2022-11-12T13:25:42.072Z,71.28
2022-11-12T13:29:21.593Z,71.50
2022-11-12T13:32:42.471Z,71.83
2022-11-12T13:35:49.464Z,72.47
2022-11-12T13:39:12.321Z,71.91
2022-11-12T13:42:37.470Z,72.36
2022-11-12T13:45:49.238Z,72.34
2022-11-12T13:49:01.141Z,72.86
2022-11-12T13:52:08.222Z,72.39
2022-11-12T13:55:17.034Z,74.13
2022-11-12T13:58:32.199Z,75.02
2022-11-12T14:01:38.940Z,75.42
2022-11-12T14:04:47.433Z,75.38
2022-11-12T14:08:27.144Z,74.43
2022-11-12T14:11:47.591Z,75.37
2022-11-12T14:15:11.982Z,75.28
2022-11-12T14:18:26.725Z,75.39
2022-11-12T14:21:35.173Z,75.81
2022-11-12T14:24:42.259Z,76.97
2022-11-12T14:27:50.191Z,76.33
2022-11-12T14:30:57.356Z,75.86
2022-11-12T14:34:23.676Z,76.90
2022-11-12T14:37:43.070Z,77.90
2022-11-12T14:40:53.743Z,78.39
2022-11-12T14:44:12.563Z,80.02
2022-11-12T14:47:19.860Z,80.77
2022-11-12T14:50:31.716Z,80.76
2022-11-12T14:53:46.239Z,81.21
2022-11-12T14:56:53.398Z,80.99
2022-11-12T15:00:00.151Z,81.99
2022-11-12T15:03:07.428Z,81.71
2022-11-12T15:06:14.154Z,82.31
2022-11-12T15:09:34.212Z,81.39
2022-11-12T15:12:41.092Z,82.99
2022-11-12T15:15:53.668Z,83.09
2022-11-12T15:19:19.979Z,83.93
2022-11-12T15:22:26.517Z,83.99
2022-11-12T15:25:34.551Z,84.70
2022-11-12T15:28:41.347Z,84.74
2022-11-12T15:31:50.612Z,85.64
2022-11-12T15:34:57.201Z,86.20
2022-11-12T15:38:08.180Z,86.34
2022-11-12T15:41:27.166Z,87.17
2022-11-12T15:44:35.910Z,87.54
2022-11-12T15:47:42.948Z,87.53
2022-11-12T15:50:50.661Z,86.49
2022-11-12T15:53:57.354Z,86.95
2022-11-12T15:57:05.660Z,86.75
2022-11-12T16:00:17.701Z,87.72
2022-11-12T16:03:24.566Z,86.33
2022-11-12T16:06:31.511Z,86.12
2022-11-12T16:09:39.159Z,86.85
2022-11-12T16:12:48.733Z,86.89
2022-11-12T16:15:57.754Z,86.77
2022-11-12T16:19:04.117Z,87.30
2022-11-12T16:22:13.725Z,87.75
2022-11-12T16:25:21.323Z,87.62
2022-11-12T16:28:29.407Z,88.75
2022-11-12T16:31:36.033Z,88.24
2022-11-12T16:34:43.807Z,87.86
2022-11-12T16:37:51.571Z,88.19
2022-11-12T16:40:58.025Z,89.17
2022-11-12T16:44:06.569Z,89.29
2022-11-12T16:47:13.519Z,87.98
2022-11-12T16:50:22.332Z,87.70
2022-11-12T16:53:29.322Z,88.92
2022-11-12T16:56:36.508Z,89.21
2022-11-12T16:59:45.146Z,90.28
2022-11-12T17:02:53.696Z,92.29
2022-11-12T17:06:00.255Z,91.88
2022-11-12T17:09:08.687Z,91.70
2022-11-12T17:12:15.292Z,94.27
2022-11-12T17:15:23.318Z,92.37
2022-11-12T17:18:29.965Z,91.07
2022-11-12T17:21:36.633Z,88.51
2022-11-12T17:24:43.174Z,89.55
2022-11-12T17:27:49.895Z,91.99
2022-11-12T17:31:06.282Z,92.72
2022-11-12T17:34:13.000Z,92.42
2022-11-12T17:37:19.950Z,91.24
2022-11-12T17:40:26.632Z,90.11
2022-11-12T17:43:33.622Z,89.89
2022-11-12T17:46:41.667Z,92.08
2022-11-12T17:49:48.866Z,91.19
2022-11-12T17:52:55.992Z,91.14
2022-11-12T17:56:02.993Z,90.62
2022-11-12T17:59:09.635Z,90.40
2022-11-12T18:02:17.641Z,89.49
2022-11-12T18:05:24.523Z,87.91
2022-11-12T18:08:31.368Z,88.18
2022-11-12T18:11:44.207Z,88.17
2022-11-12T18:14:50.853Z,89.18
2022-11-12T18:17:59.085Z,89.23
2022-11-12T18:21:06.373Z,89.19
2022-11-12T18:24:16.324Z,89.64
2022-11-12T18:27:27.377Z,90.18
2022-11-12T18:30:34.521Z,89.62
2022-11-12T18:33:42.964Z,89.99
2022-11-12T18:36:49.328Z,90.61
2022-11-12T18:39:56.048Z,89.62
2022-11-12T18:43:02.703Z,90.97
2022-11-12T18:46:11.387Z,90.68
2022-11-12T18:49:19.316Z,88.35
2022-11-12T18:52:26.149Z,90.15
2022-11-12T18:55:32.973Z,91.38
2022-11-12T18:58:39.759Z,91.78
2022-11-12T19:01:46.296Z,90.94
2022-11-12T19:04:55.522Z,91.20
2022-11-12T19:08:02.249Z,91.25
2022-11-12T19:11:11.480Z,91.85
2022-11-12T19:14:18.002Z,92.46
2022-11-12T19:17:28.302Z,91.58
2022-11-12T19:20:38.653Z,92.00
2022-11-12T19:23:47.840Z,90.63
2022-11-12T19:26:56.937Z,90.17
2022-11-12T19:30:05.916Z,91.03
2022-11-12T19:33:13.051Z,90.83
2022-11-12T19:36:23.225Z,91.49
2022-11-12T19:39:29.827Z,91.97
2022-11-12T19:42:36.581Z,90.79
2022-11-12T19:45:43.086Z,90.96
2022-11-12T19:48:51.301Z,91.05
2022-11-12T19:51:59.364Z,90.81
2022-11-12T19:55:06.920Z,90.88
2022-11-12T19:58:13.703Z,91.06
2022-11-12T20:01:21.362Z,92.41
2022-11-12T20:04:28.187Z,92.27
2022-11-12T20:07:36.402Z,91.85
2022-11-12T20:10:43.285Z,90.95
2022-11-12T20:13:53.318Z,90.93
2022-11-12T20:16:59.792Z,90.95
2022-11-12T20:20:09.537Z,91.96
2022-11-12T20:23:17.904Z,90.30
2022-11-12T20:26:26.908Z,91.81
2022-11-12T20:29:33.714Z,93.40
2022-11-12T20:32:40.243Z,93.94
2022-11-12T20:35:50.816Z,94.06
2022-11-12T20:38:58.575Z,92.89
2022-11-12T20:42:05.344Z,91.26
2022-11-12T20:45:12.272Z,90.37
2022-11-12T20:48:20.263Z,91.75
2022-11-12T20:51:29.768Z,93.11
2022-11-12T20:54:37.681Z,93.08
2022-11-12T20:57:44.314Z,93.73
2022-11-12T21:00:51.863Z,93.25
2022-11-12T21:03:59.392Z,92.11
2022-11-12T21:07:06.382Z,90.12
2022-11-12T21:10:14.972Z,89.56
2022-11-12T21:13:22.004Z,90.87
2022-11-12T21:16:28.669Z,90.05
2022-11-12T21:19:35.378Z,90.93
2022-11-12T21:22:41.993Z,90.55
2022-11-12T21:25:50.142Z,91.14
2022-11-12T21:28:57.342Z,90.85
2022-11-12T21:32:03.641Z,90.40
2022-11-12T21:35:10.982Z,89.28
2022-11-12T21:38:17.420Z,89.42
2022-11-12T21:41:27.352Z,89.78
2022-11-12T21:44:34.054Z,90.96
2022-11-12T21:47:40.845Z,90.73
2022-11-12T21:50:47.626Z,91.77
2022-11-12T21:53:55.454Z,89.57
2022-11-12T21:57:03.092Z,90.70
2022-11-12T22:00:39.732Z,91.53
2022-11-12T22:03:38.126Z,91.11
2022-11-12T22:06:44.283Z,90.74
2022-11-12T22:09:56.381Z,91.86
2022-11-12T22:13:25.851Z,92.97
2022-11-12T22:16:31.613Z,93.09
2022-11-12T22:19:39.160Z,93.97
2022-11-12T22:22:45.772Z,91.94
2022-11-12T22:25:53.216Z,91.99
2022-11-12T22:29:01.457Z,91.20
2022-11-12T22:32:07.996Z,92.23
2022-11-12T22:35:14.682Z,92.07
2022-11-12T22:38:21.455Z,92.93
2022-11-12T22:41:29.749Z,93.00
2022-11-12T22:44:37.885Z,92.52
2022-11-12T22:47:44.362Z,92.42
2022-11-12T22:50:51.115Z,92.31
2022-11-12T22:53:59.215Z,90.42
2022-11-12T22:57:05.878Z,90.02
2022-11-12T23:00:17.424Z,92.34
2022-11-12T23:03:23.836Z,90.89
2022-11-12T23:06:31.872Z,90.79
2022-11-12T23:09:38.971Z,91.82
2022-11-12T23:12:45.826Z,92.20
2022-11-12T23:15:53.832Z,92.83
2022-11-12T23:19:01.257Z,92.50
2022-11-12T23:22:08.511Z,92.25
2022-11-12T23:25:15.301Z,91.53
2022-11-12T23:28:22.060Z,91.95
2022-11-12T23:31:32.354Z,91.80
2022-11-12T23:34:39.165Z,91.77
2022-11-12T23:37:46.073Z,92.76
2022-11-12T23:40:57.195Z,92.57
2022-11-12T23:44:03.946Z,92.03
2022-11-12T23:47:12.193Z,91.67
2022-11-12T23:50:19.136Z,90.96
2022-11-12T23:53:25.454Z,90.85
2022-11-12T23:56:32.392Z,90.79
2022-11-12T23:59:39.318Z,92.20
